createdAt,value
2022-10-18T04:00:31.239Z,0.00
2022-10-18T04:01:31.305Z,0.00
2022-10-18T04:02:31.512Z,0.00
2022-10-18T04:03:31.158Z,0.00
2022-10-18T04:04:31.145Z,0.00
2022-10-18T04:05:31.139Z,0.00
2022-10-18T04:06:31.123Z,0.00
2022-10-18T04:07:31.191Z,0.00
2022-10-18T04:08:31.099Z,0.00
2022-10-18T04:09:31.091Z,0.00
2022-10-18T04:10:31.080Z,0.00
2022-10-18T04:11:36.093Z,0.00
2022-10-18T04:12:31.407Z,0.00
2022-10-18T04:13:31.048Z,0.00
2022-10-18T04:14:31.035Z,0.00
2022-10-18T04:15:31.022Z,0.00
2022-10-18T04:16:31.074Z,0.00
2022-10-18T04:17:31.342Z,0.00
2022-10-18T04:18:30.986Z,0.00
2022-10-18T04:19:30.978Z,0.00
2022-10-18T04:20:30.964Z,0.00
2022-10-18T04:21:30.957Z,0.00
2022-10-18T04:22:35.975Z,0.00
2022-10-18T04:23:32.776Z,0.00
2022-10-18T04:24:31.925Z,0.00
2022-10-18T04:25:30.999Z,0.00
2022-10-18T04:26:30.900Z,0.00
2022-10-18T04:27:31.105Z,0.00
2022-10-18T04:28:30.955Z,0.00
2022-10-18T04:29:30.862Z,0.00
2022-10-18T04:30:30.849Z,0.00
2022-10-18T04:31:30.837Z,0.00
2022-10-18T04:32:30.838Z,0.00
2022-10-18T04:33:35.839Z,0.00
2022-10-18T04:34:30.867Z,0.00
2022-10-18T04:35:30.802Z,0.00
2022-10-18T04:36:30.779Z,0.00
2022-10-18T04:37:31.186Z,0.00
2022-10-18T04:38:30.759Z,0.00
2022-10-18T04:39:30.753Z,0.00
2022-10-18T04:40:30.747Z,0.00
2022-10-18T04:41:30.722Z,0.00
2022-10-18T04:42:30.710Z,0.00
2022-10-18T04:43:30.711Z,0.00
2022-10-18T04:44:35.720Z,0.00
2022-10-18T04:45:30.678Z,0.00
2022-10-18T04:46:30.676Z,0.00
2022-10-18T04:47:31.188Z,0.00
2022-10-18T04:48:30.643Z,0.00
2022-10-18T04:49:30.632Z,0.00
2022-10-18T04:50:30.638Z,0.00
2022-10-18T04:51:30.609Z,0.00
2022-10-18T04:52:30.605Z,0.00
2022-10-18T04:53:30.586Z,0.00
2022-10-18T04:54:30.575Z,0.00
2022-10-18T04:55:35.586Z,0.00
2022-10-18T04:56:30.550Z,0.00
2022-10-18T04:57:30.871Z,0.00
2022-10-18T04:58:30.530Z,0.00
2022-10-18T04:59:30.517Z,0.00
2022-10-18T05:00:30.505Z,0.00
2022-10-18T05:01:30.543Z,0.00
2022-10-18T05:02:30.768Z,0.00
2022-10-18T05:03:30.472Z,0.00
2022-10-18T05:04:30.463Z,0.00
2022-10-18T05:05:49.640Z,0.00
2022-10-18T05:06:36.473Z,0.00
2022-10-18T05:07:30.434Z,0.00
2022-10-18T05:08:30.427Z,0.00
2022-10-18T05:09:30.402Z,0.00
2022-10-18T05:10:30.391Z,0.00
2022-10-18T05:11:30.382Z,0.00
2022-10-18T05:12:30.651Z,0.00
2022-10-18T05:13:30.362Z,0.00
2022-10-18T05:14:30.344Z,0.00
2022-10-18T05:15:30.333Z,0.00
2022-10-18T05:16:30.321Z,0.00
2022-10-18T05:17:35.342Z,0.00
2022-10-18T05:18:30.335Z,0.00
2022-10-18T05:19:30.287Z,0.00
2022-10-18T05:20:30.274Z,0.00
2022-10-18T05:21:30.265Z,0.00
2022-10-18T05:22:30.463Z,0.00
2022-10-18T05:23:30.257Z,0.00
2022-10-18T05:24:30.229Z,0.00
2022-10-18T05:25:30.219Z,0.00
2022-10-18T05:26:30.207Z,0.00
2022-10-18T05:27:30.195Z,0.00
2022-10-18T05:28:40.192Z,4.00
2022-10-18T05:29:31.179Z,0.00
2022-10-18T05:30:30.160Z,0.00
2022-10-18T05:31:30.149Z,4.00
2022-10-18T05:32:30.455Z,4.00
2022-10-18T05:33:30.138Z,4.00
2022-10-18T05:34:30.114Z,4.00
2022-10-18T05:35:30.103Z,0.00
2022-10-18T05:36:30.100Z,4.00
2022-10-18T05:37:30.080Z,4.00
2022-10-18T05:38:30.202Z,4.00
2022-10-18T05:39:35.079Z,8.00
2022-10-18T05:40:30.048Z,8.00
2022-10-18T05:41:30.036Z,8.00
2022-10-18T05:42:30.429Z,12.00
2022-10-18T05:43:30.028Z,16.00
2022-10-18T05:44:30.003Z,20.00
2022-10-18T05:45:30.161Z,24.00
2022-10-18T05:46:30.040Z,24.00
2022-10-18T05:47:30.016Z,28.00
2022-10-18T05:48:29.968Z,32.00
2022-10-18T05:49:29.945Z,36.00
2022-10-18T05:50:38.067Z,36.00
2022-10-18T05:51:30.920Z,44.00
2022-10-18T05:52:30.240Z,48.00
2022-10-18T05:53:38.095Z,56.00
2022-10-18T05:54:30.913Z,60.00
2022-10-18T05:55:29.888Z,64.00
2022-10-18T05:56:29.936Z,64.00
2022-10-18T05:57:30.252Z,72.00
2022-10-18T05:58:29.862Z,76.00
2022-10-18T05:59:29.827Z,84.00
2022-10-18T06:00:29.818Z,92.00
2022-10-18T06:01:34.827Z,100.00
2022-10-18T06:02:29.936Z,104.00
2022-10-18T06:03:29.836Z,108.00
2022-10-18T06:04:29.782Z,100.00
2022-10-18T06:05:29.841Z,96.00
2022-10-18T06:06:29.763Z,100.00
2022-10-18T06:07:29.957Z,120.00
2022-10-18T06:08:29.729Z,128.00
2022-10-18T06:09:29.730Z,136.00
2022-10-18T06:10:29.747Z,128.00
2022-10-18T06:11:29.705Z,120.00
2022-10-18T06:12:34.706Z,112.00
2022-10-18T06:13:31.234Z,96.00
2022-10-18T06:14:29.665Z,84.00
2022-10-18T06:15:29.671Z,84.00
2022-10-18T06:16:32.367Z,92.00
2022-10-18T06:17:31.813Z,104.00
2022-10-18T06:18:29.615Z,108.00
2022-10-18T06:19:29.609Z,120.00
2022-10-18T06:20:29.603Z,128.00
2022-10-18T06:21:29.577Z,140.00
2022-10-18T06:22:29.567Z,160.00
2022-10-18T06:23:34.594Z,180.00
2022-10-18T06:24:29.546Z,192.00
2022-10-18T06:25:29.539Z,200.00
2022-10-18T06:26:29.563Z,204.00
2022-10-18T06:27:29.895Z,212.00
2022-10-18T06:28:29.553Z,196.00
2022-10-18T06:29:29.525Z,196.00
2022-10-18T06:30:29.479Z,184.00
2022-10-18T06:31:29.466Z,152.00
2022-10-18T06:32:29.456Z,140.00
2022-10-18T06:33:29.460Z,160.00
2022-10-18T06:34:34.463Z,160.00
2022-10-18T06:35:29.442Z,152.00
2022-10-18T06:36:29.411Z,156.00
2022-10-18T06:37:29.606Z,176.00
2022-10-18T06:38:29.397Z,200.00
2022-10-18T06:39:29.373Z,260.00
2022-10-18T06:40:29.363Z,312.00
2022-10-18T06:41:29.349Z,296.00
2022-10-18T06:42:29.480Z,320.00
2022-10-18T06:43:29.343Z,344.00
2022-10-18T06:44:29.317Z,392.00
2022-10-18T06:45:34.337Z,380.00
2022-10-18T06:46:29.295Z,404.00
2022-10-18T06:47:29.286Z,388.00
2022-10-18T06:48:29.293Z,420.00
2022-10-18T06:49:29.266Z,488.00
2022-10-18T06:50:29.247Z,528.00
2022-10-18T06:51:29.237Z,584.00
2022-10-18T06:52:29.415Z,700.00
2022-10-18T06:53:29.258Z,744.00
2022-10-18T06:54:29.210Z,736.00
2022-10-18T06:55:29.191Z,744.00
2022-10-18T06:56:34.204Z,628.00
2022-10-18T06:57:29.175Z,552.00
2022-10-18T06:58:29.176Z,608.00
2022-10-18T06:59:31.243Z,624.00
2022-10-18T07:00:29.140Z,552.00
2022-10-18T07:01:29.174Z,440.00
2022-10-18T07:02:29.361Z,336.00
2022-10-18T07:03:29.099Z,244.00
2022-10-18T07:04:29.102Z,172.00
2022-10-18T07:05:29.162Z,132.00
2022-10-18T07:06:29.066Z,116.00
2022-10-18T07:07:34.417Z,144.00
2022-10-18T07:08:29.044Z,204.00
2022-10-18T07:09:29.039Z,176.00
2022-10-18T07:10:29.021Z,156.00
2022-10-18T07:11:29.007Z,284.00
2022-10-18T07:12:29.005Z,400.00
2022-10-18T07:13:32.520Z,300.00
2022-10-18T07:14:29.354Z,136.00
2022-10-18T07:15:29.017Z,112.00
2022-10-18T07:16:28.951Z,160.00
2022-10-18T07:17:29.063Z,244.00
2022-10-18T07:18:33.949Z,328.00
2022-10-18T07:19:28.926Z,308.00
2022-10-18T07:20:28.908Z,304.00
2022-10-18T07:21:28.908Z,352.00
2022-10-18T07:22:30.394Z,392.00
2022-10-18T07:23:28.871Z,396.00
2022-10-18T07:24:28.930Z,372.00
2022-10-18T07:25:30.568Z,360.00
2022-10-18T07:26:28.857Z,304.00
2022-10-18T07:27:28.968Z,256.00
2022-10-18T07:28:28.850Z,240.00
2022-10-18T07:29:33.856Z,220.00
2022-10-18T07:30:28.797Z,204.00
2022-10-18T07:31:28.783Z,180.00
2022-10-18T07:32:28.777Z,176.00
2022-10-18T07:33:28.761Z,172.00
2022-10-18T07:34:28.768Z,196.00
2022-10-18T07:35:28.742Z,228.00
2022-10-18T07:36:28.731Z,280.00
2022-10-18T07:37:30.153Z,388.00
2022-10-18T07:38:28.707Z,556.00
2022-10-18T07:39:28.701Z,676.00
2022-10-18T07:40:33.727Z,848.00
2022-10-18T07:41:28.681Z,888.00
2022-10-18T07:42:28.659Z,916.00
2022-10-18T07:43:28.646Z,996.00
2022-10-18T07:44:28.649Z,1144.00
2022-10-18T07:45:28.691Z,1252.00
2022-10-18T07:46:28.623Z,1260.00
2022-10-18T07:47:30.120Z,1228.00
2022-10-18T07:48:28.593Z,1148.00
2022-10-18T07:49:28.593Z,972.00
2022-10-18T07:50:28.569Z,768.00
2022-10-18T07:51:33.579Z,672.00
2022-10-18T07:52:28.546Z,636.00
2022-10-18T07:53:28.537Z,576.00
2022-10-18T07:54:28.552Z,536.00
2022-10-18T07:55:28.515Z,528.00
2022-10-18T07:56:28.505Z,540.00
2022-10-18T07:57:28.504Z,560.00
2022-10-18T07:58:28.483Z,600.00
2022-10-18T07:59:28.489Z,668.00
2022-10-18T08:00:28.465Z,688.00
2022-10-18T08:01:28.508Z,712.00
2022-10-18T08:02:33.459Z,780.00
2022-10-18T08:03:28.424Z,824.00
2022-10-18T08:04:28.429Z,832.00
2022-10-18T08:05:28.488Z,836.00
2022-10-18T08:06:28.391Z,824.00
2022-10-18T08:07:28.381Z,832.00
2022-10-18T08:08:28.366Z,888.00
2022-10-18T08:09:28.363Z,1060.00
2022-10-18T08:10:28.346Z,1208.00
2022-10-18T08:11:28.332Z,1256.00
2022-10-18T08:12:28.324Z,1176.00
2022-10-18T08:13:33.333Z,996.00
2022-10-18T08:14:28.317Z,948.00
2022-10-18T08:15:28.287Z,1052.00
2022-10-18T08:16:28.328Z,1196.00
2022-10-18T08:17:28.285Z,1332.00
2022-10-18T08:18:28.253Z,1444.00
2022-10-18T08:19:28.253Z,1408.00
2022-10-18T08:20:31.447Z,1296.00
2022-10-18T08:21:28.221Z,1224.00
2022-10-18T08:22:28.209Z,1240.00
2022-10-18T08:23:28.209Z,1264.00
2022-10-18T08:24:33.221Z,1244.00
2022-10-18T08:25:28.240Z,1212.00
2022-10-18T08:26:28.174Z,1256.00
2022-10-18T08:27:28.150Z,1400.00
2022-10-18T08:28:28.212Z,1564.00
2022-10-18T08:29:31.632Z,1644.00
2022-10-18T08:30:28.122Z,1524.00
2022-10-18T08:31:28.107Z,1460.00
2022-10-18T08:32:28.104Z,1228.00
2022-10-18T08:33:28.104Z,1164.00
2022-10-18T08:34:28.202Z,1076.00
2022-10-18T08:35:33.085Z,904.00
2022-10-18T08:36:28.051Z,1024.00
2022-10-18T08:37:28.037Z,1496.00
2022-10-18T08:38:28.043Z,1924.00
2022-10-18T08:39:28.024Z,2004.00
2022-10-18T08:40:28.008Z,2208.00
2022-10-18T08:41:27.993Z,2500.00
2022-10-18T08:42:27.994Z,2748.00
2022-10-18T08:43:28.058Z,3016.00
2022-10-18T08:44:27.991Z,3192.00
2022-10-18T08:45:41.961Z,3680.00
2022-10-18T08:46:33.959Z,3164.00
2022-10-18T08:47:27.925Z,2908.00
2022-10-18T08:48:27.926Z,2724.00
2022-10-18T08:49:27.939Z,2392.00
2022-10-18T08:50:27.894Z,2248.00
2022-10-18T08:51:27.879Z,2604.00
2022-10-18T08:52:27.894Z,3020.00
2022-10-18T08:53:27.859Z,2892.00
2022-10-18T08:54:27.846Z,2696.00
2022-10-18T08:55:27.843Z,2804.00
2022-10-18T08:56:27.820Z,3020.00
2022-10-18T08:57:33.253Z,3124.00
2022-10-18T08:58:27.800Z,3484.00
2022-10-18T08:59:27.794Z,5428.00
2022-10-18T09:00:27.803Z,3520.00
2022-10-18T09:01:27.763Z,2772.00
2022-10-18T09:02:27.752Z,3068.00
2022-10-18T09:03:27.777Z,3380.00
2022-10-18T09:04:27.736Z,3280.00
2022-10-18T09:05:27.745Z,3348.00
2022-10-18T09:06:27.706Z,3344.00
2022-10-18T09:07:27.698Z,3224.00
2022-10-18T09:08:32.709Z,2876.00
2022-10-18T09:09:27.675Z,2504.00
2022-10-18T09:10:27.671Z,2192.00
2022-10-18T09:11:27.656Z,1824.00
2022-10-18T09:12:27.641Z,1932.00
2022-10-18T09:13:27.626Z,1928.00
2022-10-18T09:14:27.720Z,2388.00
2022-10-18T09:15:27.620Z,2532.00
2022-10-18T09:16:27.594Z,3076.00
2022-10-18T09:17:27.581Z,3392.00
2022-10-18T09:18:27.572Z,3588.00
2022-10-18T09:19:32.581Z,3648.00
2022-10-18T09:20:27.557Z,3356.00
2022-10-18T09:21:27.573Z,3548.00
2022-10-18T09:22:27.538Z,3556.00
2022-10-18T09:23:27.514Z,3788.00
2022-10-18T09:24:27.505Z,3996.00
2022-10-18T09:25:27.503Z,4096.00
2022-10-18T09:26:27.490Z,4012.00
2022-10-18T09:27:27.467Z,4012.00
2022-10-18T09:28:27.496Z,4004.00
2022-10-18T09:29:27.458Z,4176.00
2022-10-18T09:30:32.473Z,4276.00
2022-10-18T09:31:27.431Z,4376.00
2022-10-18T09:32:27.461Z,4304.00
2022-10-18T09:33:27.410Z,4168.00
2022-10-18T09:34:27.390Z,3776.00
2022-10-18T09:35:27.390Z,3212.00
2022-10-18T09:36:27.376Z,2816.00
2022-10-18T09:37:27.388Z,2872.00
2022-10-18T09:38:27.349Z,3144.00
2022-10-18T09:39:27.331Z,3232.00
2022-10-18T09:40:27.460Z,3096.00
2022-10-18T09:41:32.331Z,3096.00
2022-10-18T09:42:27.305Z,2836.00
2022-10-18T09:43:27.300Z,3060.00
2022-10-18T09:44:27.277Z,3328.00
2022-10-18T09:45:27.279Z,3472.00
2022-10-18T09:46:27.474Z,3772.00
2022-10-18T09:47:27.278Z,3796.00
2022-10-18T09:48:27.242Z,4012.00
2022-10-18T09:49:27.229Z,4756.00
2022-10-18T09:50:27.266Z,5940.00
2022-10-18T09:51:27.202Z,6964.00
2022-10-18T09:52:32.561Z,6836.00
2022-10-18T09:53:27.191Z,6016.00
2022-10-18T09:54:27.163Z,6424.00
2022-10-18T09:55:27.168Z,5440.00
2022-10-18T09:56:27.150Z,5028.00
2022-10-18T09:57:27.131Z,4564.00
2022-10-18T09:58:27.116Z,4500.00
2022-10-18T09:59:27.115Z,4204.00
2022-10-18T10:00:27.115Z,4204.00
2022-10-18T10:01:27.094Z,3784.00
2022-10-18T10:02:27.110Z,3444.00
2022-10-18T10:03:32.083Z,3232.00
2022-10-18T10:04:27.047Z,3444.00
2022-10-18T10:05:27.042Z,3536.00
2022-10-18T10:06:27.041Z,3588.00
2022-10-18T10:07:29.775Z,3812.00
2022-10-18T10:08:28.027Z,3596.00
2022-10-18T10:09:27.031Z,3428.00
2022-10-18T10:10:26.985Z,3420.00
2022-10-18T10:11:26.983Z,3016.00
2022-10-18T10:12:26.960Z,3852.00
2022-10-18T10:13:26.949Z,4112.00
2022-10-18T10:14:31.967Z,3040.00
2022-10-18T10:15:29.564Z,2328.00
2022-10-18T10:16:27.922Z,2368.00
2022-10-18T10:17:26.905Z,1944.00
2022-10-18T10:18:26.890Z,1820.00
2022-10-18T10:19:26.880Z,2420.00
2022-10-18T10:20:26.868Z,3212.00
2022-10-18T10:21:26.871Z,3608.00
2022-10-18T10:22:26.847Z,3820.00
2022-10-18T10:23:26.836Z,4740.00
2022-10-18T10:24:30.290Z,3960.00
2022-10-18T10:25:31.834Z,4212.00
2022-10-18T10:26:26.809Z,4632.00
2022-10-18T10:27:26.795Z,4116.00
2022-10-18T10:28:26.826Z,4248.00
2022-10-18T10:29:43.616Z,4420.00
2022-10-18T10:30:27.756Z,4460.00
2022-10-18T10:31:26.754Z,3436.00
2022-10-18T10:33:26.727Z,3900.00
2022-10-18T10:34:26.711Z,6196.00
2022-10-18T10:35:41.492Z,5352.00
2022-10-18T10:36:32.718Z,5736.00
2022-10-18T10:37:26.676Z,5396.00
2022-10-18T10:38:26.675Z,4776.00
2022-10-18T10:39:26.835Z,4612.00
2022-10-18T10:40:28.667Z,4436.00
2022-10-18T10:41:26.714Z,4984.00
2022-10-18T10:42:26.627Z,7032.00
2022-10-18T10:43:40.595Z,5184.00
2022-10-18T10:44:27.598Z,4860.00
2022-10-18T10:45:26.588Z,4624.00
2022-10-18T10:46:26.587Z,4540.00
2022-10-18T10:47:31.590Z,3976.00
2022-10-18T10:48:29.927Z,3452.00
2022-10-18T10:49:39.758Z,3608.00
2022-10-18T10:50:27.579Z,4340.00
2022-10-18T10:51:26.545Z,4608.00
2022-10-18T10:52:28.045Z,4940.00
2022-10-18T10:53:26.504Z,4792.00
2022-10-18T10:54:26.485Z,4476.00
2022-10-18T10:55:34.793Z,5528.00
2022-10-18T10:56:27.492Z,5824.00
2022-10-18T10:57:26.452Z,5396.00
2022-10-18T10:58:31.462Z,5332.00
2022-10-18T10:59:26.436Z,5024.00
2022-10-18T11:00:26.419Z,4440.00
2022-10-18T11:01:26.420Z,4700.00
2022-10-18T11:02:26.407Z,4460.00
2022-10-18T11:03:30.121Z,3888.00
2022-10-18T11:04:26.373Z,4392.00
2022-10-18T11:05:26.382Z,4772.00
2022-10-18T11:06:26.362Z,4804.00
2022-10-18T11:07:26.350Z,4964.00
2022-10-18T11:08:26.339Z,4592.00
2022-10-18T11:09:31.889Z,4960.00
2022-10-18T11:10:26.309Z,4944.00
2022-10-18T11:11:26.311Z,4784.00
2022-10-18T11:12:26.313Z,4176.00
2022-10-18T11:13:26.278Z,3384.00
2022-10-18T11:14:27.113Z,3248.00
2022-10-18T11:15:26.254Z,2728.00
2022-10-18T11:16:26.266Z,2380.00
2022-10-18T11:17:26.244Z,2040.00
2022-10-18T11:18:26.222Z,1600.00
2022-10-18T11:19:28.395Z,1716.00
2022-10-18T11:20:31.217Z,1460.00
2022-10-18T11:21:26.189Z,1320.00
2022-10-18T11:22:26.183Z,1180.00
2022-10-18T11:23:26.166Z,1068.00
2022-10-18T11:24:26.152Z,1244.00
2022-10-18T11:25:26.142Z,1340.00
2022-10-18T11:26:26.149Z,1220.00
2022-10-18T11:27:26.134Z,1108.00
2022-10-18T11:28:26.198Z,1112.00
2022-10-18T11:29:26.114Z,1216.00
2022-10-18T11:30:26.107Z,1068.00
2022-10-18T11:31:31.104Z,940.00
2022-10-18T11:32:26.076Z,952.00
2022-10-18T11:33:44.058Z,1184.00
2022-10-18T11:34:27.046Z,1088.00
2022-10-18T11:35:26.035Z,1160.00
2022-10-18T11:36:26.024Z,1272.00
2022-10-18T11:37:39.497Z,1384.00
2022-10-18T11:38:27.001Z,1496.00
2022-10-18T11:39:25.994Z,1796.00
2022-10-18T11:40:25.975Z,2412.00
2022-10-18T11:41:25.966Z,1916.00
2022-10-18T11:42:30.990Z,1576.00
2022-10-18T11:43:30.380Z,1412.00
2022-10-18T11:44:26.948Z,1540.00
2022-10-18T11:45:25.968Z,1588.00
2022-10-18T11:46:25.910Z,1700.00
2022-10-18T11:47:25.898Z,1664.00
2022-10-18T11:48:25.894Z,1152.00
2022-10-18T11:49:25.880Z,1124.00
2022-10-18T11:50:25.866Z,1296.00
2022-10-18T11:51:33.984Z,1584.00
2022-10-18T11:52:26.838Z,1648.00
2022-10-18T11:53:30.878Z,1408.00
2022-10-18T11:54:25.819Z,1316.00
2022-10-18T11:55:28.944Z,1072.00
2022-10-18T11:56:26.793Z,908.00
2022-10-18T11:57:25.792Z,708.00
2022-10-18T11:58:25.788Z,620.00
2022-10-18T11:59:25.761Z,616.00
2022-10-18T12:00:28.832Z,608.00
2022-10-18T12:01:28.405Z,668.00
2022-10-18T12:02:25.789Z,696.00
2022-10-18T12:03:25.743Z,716.00
2022-10-18T12:04:30.726Z,616.00
2022-10-18T12:05:25.694Z,608.00
2022-10-18T12:06:25.679Z,568.00
2022-10-18T12:07:28.965Z,580.00
2022-10-18T12:08:26.673Z,616.00
2022-10-18T12:09:25.652Z,628.00
2022-10-18T12:10:37.894Z,668.00
2022-10-18T12:11:26.625Z,800.00
2022-10-18T12:12:25.615Z,852.00
2022-10-18T12:13:25.613Z,848.00
2022-10-18T12:14:25.593Z,896.00
2022-10-18T12:15:30.619Z,984.00
2022-10-18T12:16:49.600Z,1040.00
2022-10-18T12:17:42.758Z,1036.00
2022-10-18T12:18:26.571Z,1060.00
2022-10-18T12:19:27.043Z,1196.00
2022-10-18T12:20:25.520Z,1292.00
2022-10-18T12:21:25.949Z,1396.00
2022-10-18T12:22:25.501Z,1432.00
2022-10-18T12:23:25.500Z,1328.00
2022-10-18T12:24:25.475Z,1376.00
2022-10-18T12:25:25.471Z,1344.00
2022-10-18T12:26:30.474Z,1240.00
2022-10-18T12:27:25.442Z,1224.00
2022-10-18T12:28:25.489Z,1120.00
2022-10-18T12:29:25.421Z,1024.00
2022-10-18T12:30:25.412Z,920.00
2022-10-18T12:31:25.423Z,868.00
2022-10-18T12:32:25.414Z,852.00
2022-10-18T12:33:29.127Z,816.00
2022-10-18T12:34:25.364Z,844.00
2022-10-18T12:35:25.353Z,920.00
2022-10-18T12:36:25.343Z,996.00
2022-10-18T12:37:30.714Z,1012.00
2022-10-18T12:38:25.327Z,976.00
2022-10-18T12:39:33.450Z,900.00
2022-10-18T12:40:26.294Z,944.00
2022-10-18T12:41:25.289Z,920.00
2022-10-18T12:42:25.273Z,928.00
2022-10-18T12:43:25.272Z,1028.00
2022-10-18T12:44:25.250Z,964.00
2022-10-18T12:45:25.243Z,892.00
2022-10-18T12:46:25.307Z,788.00
2022-10-18T12:47:25.239Z,832.00
2022-10-18T12:48:30.241Z,952.00
2022-10-18T12:49:25.194Z,1240.00
2022-10-18T12:50:25.182Z,1408.00
2022-10-18T12:51:25.171Z,1192.00
2022-10-18T12:52:25.163Z,1248.00
2022-10-18T12:53:25.163Z,1244.00
2022-10-18T12:54:25.158Z,1264.00
2022-10-18T12:55:25.125Z,1380.00
2022-10-18T12:56:25.309Z,1424.00
2022-10-18T12:57:25.106Z,1724.00
2022-10-18T12:58:25.109Z,2256.00
2022-10-18T12:59:30.109Z,2664.00
2022-10-18T13:00:25.087Z,2844.00
2022-10-18T13:01:25.155Z,2852.00
2022-10-18T13:02:25.046Z,2736.00
2022-10-18T13:03:25.055Z,2804.00
2022-10-18T13:04:25.055Z,2628.00
2022-10-18T13:05:41.084Z,2380.00
2022-10-18T13:06:26.001Z,2280.00
2022-10-18T13:07:24.993Z,2136.00
2022-10-18T13:08:24.990Z,1972.00
2022-10-18T13:09:24.974Z,1976.00
2022-10-18T13:10:29.981Z,1828.00
2022-10-18T13:11:24.951Z,2000.00
2022-10-18T13:12:24.933Z,2356.00
2022-10-18T13:14:24.908Z,2460.00
2022-10-18T13:15:26.486Z,2524.00
2022-10-18T13:16:24.887Z,2676.00
2022-10-18T13:17:24.886Z,2820.00
2022-10-18T13:18:24.864Z,2684.00
2022-10-18T13:19:24.886Z,2464.00
2022-10-18T13:20:26.539Z,2232.00
2022-10-18T13:21:29.852Z,2196.00
2022-10-18T13:22:24.822Z,2148.00
2022-10-18T13:23:24.817Z,2208.00
2022-10-18T13:24:24.813Z,2220.00
2022-10-18T13:25:24.785Z,2288.00
2022-10-18T13:26:24.778Z,2188.00
2022-10-18T13:27:35.379Z,2204.00
2022-10-18T13:28:25.783Z,2224.00
2022-10-18T13:29:24.751Z,2320.00
2022-10-18T13:30:24.726Z,2504.00
2022-10-18T13:31:24.718Z,2692.00
2022-10-18T13:32:29.959Z,2744.00
2022-10-18T13:33:24.695Z,2652.00
2022-10-18T13:34:24.683Z,2520.00
2022-10-18T13:35:24.701Z,2312.00
2022-10-18T13:36:24.658Z,2280.00
2022-10-18T13:37:24.649Z,2272.00
2022-10-18T13:38:24.636Z,2396.00
2022-10-18T13:39:24.627Z,2188.00
2022-10-18T13:40:24.627Z,1968.00
2022-10-18T13:42:24.591Z,1684.00
2022-10-18T13:43:29.611Z,1632.00
2022-10-18T13:44:24.571Z,1560.00
2022-10-18T13:45:24.568Z,1572.00
2022-10-18T13:46:24.545Z,1532.00
2022-10-18T13:47:24.537Z,1468.00
2022-10-18T13:48:24.526Z,1344.00
2022-10-18T13:49:24.515Z,1372.00
2022-10-18T13:51:24.511Z,1552.00
2022-10-18T13:52:24.477Z,1708.00
2022-10-18T13:53:24.473Z,1732.00
2022-10-18T13:54:29.498Z,1784.00
2022-10-18T13:55:24.470Z,1952.00
2022-10-18T13:56:24.433Z,2044.00
2022-10-18T13:57:24.421Z,2044.00
2022-10-18T13:58:24.408Z,2276.00
2022-10-18T13:59:24.496Z,2312.00
2022-10-18T14:00:24.401Z,2248.00
2022-10-18T14:01:24.472Z,2236.00
2022-10-18T14:02:42.895Z,2184.00
2022-10-18T14:03:55.076Z,2280.00
2022-10-18T14:04:25.343Z,2400.00
2022-10-18T14:05:29.369Z,2228.00
2022-10-18T14:06:24.325Z,2108.00
2022-10-18T14:07:24.328Z,2124.00
2022-10-18T14:08:24.329Z,2076.00
2022-10-18T14:09:32.846Z,2084.00
2022-10-18T14:10:43.287Z,1948.00
2022-10-18T14:11:25.282Z,1752.00
2022-10-18T14:12:24.253Z,1652.00
2022-10-18T14:13:24.243Z,1448.00
2022-10-18T14:14:24.230Z,1360.00
2022-10-18T14:15:24.216Z,1368.00
2022-10-18T14:16:29.236Z,1120.00
2022-10-18T14:17:24.192Z,1076.00
2022-10-18T14:18:24.183Z,1088.00
2022-10-18T14:19:24.170Z,1120.00
2022-10-18T14:20:27.281Z,1188.00
2022-10-18T14:21:30.242Z,1004.00
2022-10-18T14:22:25.139Z,868.00
2022-10-18T14:23:24.164Z,852.00
2022-10-18T14:24:24.117Z,792.00
2022-10-18T14:25:24.101Z,740.00
2022-10-18T14:26:24.108Z,724.00
2022-10-18T14:27:29.102Z,744.00
2022-10-18T14:28:36.278Z,716.00
2022-10-18T14:29:25.125Z,752.00
2022-10-18T14:30:24.050Z,772.00
2022-10-18T14:31:24.047Z,848.00
2022-10-18T14:32:24.026Z,932.00
2022-10-18T14:33:24.015Z,948.00
2022-10-18T14:34:24.009Z,964.00
2022-10-18T14:35:33.042Z,944.00
2022-10-18T14:36:24.995Z,940.00
2022-10-18T14:37:23.967Z,972.00
2022-10-18T14:38:29.000Z,1032.00
2022-10-18T14:39:23.948Z,1156.00
2022-10-18T14:40:23.935Z,1096.00
2022-10-18T14:41:23.922Z,972.00
2022-10-18T14:42:23.947Z,900.00
2022-10-18T14:43:23.902Z,868.00
2022-10-18T14:44:23.889Z,904.00
2022-10-18T14:45:23.886Z,904.00
2022-10-18T14:46:23.883Z,852.00
2022-10-18T14:47:23.862Z,796.00
2022-10-18T14:48:23.843Z,752.00
2022-10-18T14:49:28.853Z,728.00
2022-10-18T14:50:23.824Z,720.00
2022-10-18T14:51:23.808Z,688.00
2022-10-18T14:52:26.160Z,688.00
2022-10-18T14:53:23.790Z,696.00
2022-10-18T14:54:26.146Z,720.00
2022-10-18T14:55:24.763Z,728.00
2022-10-18T14:56:23.752Z,712.00
2022-10-18T14:57:23.751Z,668.00
2022-10-18T14:58:23.740Z,620.00
2022-10-18T14:59:23.726Z,588.00
2022-10-18T15:00:28.732Z,580.00
2022-10-18T15:01:23.750Z,572.00
2022-10-18T15:02:23.719Z,552.00
2022-10-18T15:03:23.672Z,532.00
2022-10-18T15:04:27.784Z,516.00
2022-10-18T15:05:24.651Z,484.00
2022-10-18T15:06:23.642Z,460.00
2022-10-18T15:07:23.641Z,484.00
2022-10-18T15:08:23.616Z,552.00
2022-10-18T15:09:23.645Z,616.00
2022-10-18T15:10:23.615Z,600.00
2022-10-18T15:11:28.603Z,520.00
2022-10-18T15:12:23.587Z,448.00
2022-10-18T15:13:23.558Z,408.00
2022-10-18T15:14:23.548Z,360.00
2022-10-18T15:15:23.543Z,320.00
2022-10-18T15:16:23.526Z,296.00
2022-10-18T15:17:23.534Z,284.00
2022-10-18T15:18:23.578Z,288.00
2022-10-18T15:19:23.491Z,300.00
2022-10-18T15:20:23.484Z,332.00
2022-10-18T15:21:23.466Z,364.00
2022-10-18T15:22:32.667Z,392.00
2022-10-18T15:23:23.448Z,404.00
2022-10-18T15:24:23.441Z,412.00
2022-10-18T15:25:24.338Z,396.00
2022-10-18T15:26:23.432Z,376.00
2022-10-18T15:27:23.457Z,356.00
2022-10-18T15:28:23.395Z,336.00
2022-10-18T15:29:23.415Z,312.00
2022-10-18T15:30:23.383Z,288.00
2022-10-18T15:31:23.354Z,272.00
2022-10-18T15:32:23.392Z,212.00
2022-10-18T15:33:28.354Z,216.00
2022-10-18T15:34:23.331Z,216.00
2022-10-18T15:35:26.086Z,220.00
2022-10-18T15:36:23.354Z,232.00
2022-10-18T15:37:23.307Z,224.00
2022-10-18T15:38:23.279Z,216.00
2022-10-18T15:39:23.265Z,208.00
2022-10-18T15:40:23.253Z,196.00
2022-10-18T15:41:23.242Z,184.00
2022-10-18T15:42:23.262Z,184.00
2022-10-18T15:43:23.227Z,172.00
2022-10-18T15:44:28.234Z,168.00
2022-10-18T15:45:23.196Z,164.00
2022-10-18T15:46:23.262Z,156.00
2022-10-18T15:47:23.182Z,160.00
2022-10-18T15:48:23.163Z,168.00
2022-10-18T15:49:23.155Z,172.00
2022-10-18T15:50:23.140Z,180.00
2022-10-18T15:51:23.127Z,196.00
2022-10-18T15:52:23.127Z,204.00
2022-10-18T15:53:23.105Z,192.00
2022-10-18T15:54:23.096Z,188.00
2022-10-18T15:55:28.104Z,184.00
2022-10-18T15:56:23.080Z,172.00
2022-10-18T15:57:24.042Z,164.00
2022-10-18T15:58:23.089Z,152.00
2022-10-18T15:59:23.040Z,148.00
2022-10-18T16:00:23.038Z,140.00
2022-10-18T16:01:23.052Z,116.00
2022-10-18T16:02:23.019Z,96.00
2022-10-18T16:03:23.042Z,72.00
2022-10-18T16:04:22.986Z,64.00
2022-10-18T16:05:22.977Z,60.00
2022-10-18T16:06:27.992Z,56.00
2022-10-18T16:07:22.945Z,60.00
2022-10-18T16:08:22.939Z,60.00
2022-10-18T16:09:22.923Z,56.00
2022-10-18T16:10:22.913Z,56.00
2022-10-18T16:11:22.900Z,56.00
2022-10-18T16:12:22.904Z,48.00
2022-10-18T16:13:22.878Z,40.00
2022-10-18T16:14:22.888Z,36.00
2022-10-18T16:15:22.858Z,36.00
2022-10-18T16:16:22.844Z,32.00
2022-10-18T16:17:27.867Z,24.00
2022-10-18T16:18:22.873Z,20.00
2022-10-18T16:19:22.954Z,16.00
2022-10-18T16:20:22.802Z,8.00
2022-10-18T16:21:22.804Z,8.00
2022-10-18T16:22:22.789Z,8.00
2022-10-18T16:23:22.767Z,12.00
2022-10-18T16:24:22.755Z,8.00
2022-10-18T16:25:22.740Z,8.00
2022-10-18T16:26:22.734Z,8.00
2022-10-18T16:27:22.740Z,8.00
2022-10-18T16:28:27.814Z,8.00
2022-10-18T16:29:22.700Z,8.00
2022-10-18T16:30:22.705Z,4.00